Time;durP1;ratioP1;P1;durP2;ratioP2;P2;SDS_P1;SDS_P2;PMS_P1;PMS_P2;Temp;Humidity;BMP_temperature;BMP_pressure;BME280_temperature;BME280_humidity;BME280_pressure;Samples;Min_cycle;Max_cycle;Signal;HPM_P1;HPM_P2
2024/03/20 00:02:23;;;;;;;52.90;32.70;;;;;;;1.21;100.00;100870.77;177753;1256;45956;-82
2024/03/20 00:06:26;;;;;;;55.70;31.40;;;;;;;1.16;100.00;100865.01;178055;1256;46014;-82
2024/03/20 00:10:28;;;;;;;62.40;36.20;;;;;;;1.10;100.00;100863.10;178571;1256;59399;-81
2024/03/20 00:14:31;;;;;;;51.60;32.10;;;;;;;1.09;100.00;100861.56;177841;1259;46064;-81
2024/03/20 00:18:36;;;;;;;50.90;29.20;;;;;;;1.10;100.00;100859.10;178246;1256;45976;-81
2024/03/20 00:22:38;;;;;;;50.00;29.00;;;;;;;1.05;100.00;100860.66;177892;1255;46110;-81
2024/03/20 00:26:41;;;;;;;48.40;31.40;;;;;;;0.94;100.00;100860.81;178347;1256;46023;-82
2024/03/20 00:30:44;;;;;;;59.10;34.20;;;;;;;0.92;100.00;100859.16;177683;1255;59640;-81
2024/03/20 00:34:47;;;;;;;68.20;38.60;;;;;;;0.93;100.00;100857.73;177510;1255;46033;-82
2024/03/20 00:38:51;;;;;;;64.00;34.80;;;;;;;0.95;100.00;100848.57;178318;1255;46555;-82
2024/03/20 00:42:54;;;;;;;65.40;38.20;;;;;;;0.95;100.00;100846.64;177991;1256;46099;-83
2024/03/20 00:46:57;;;;;;;69.50;36.40;;;;;;;0.95;100.00;100844.55;177576;1257;46246;-81
2024/03/20 00:51:00;;;;;;;67.70;36.40;;;;;;;0.94;100.00;100843.86;177950;1259;58212;-82
2024/03/20 00:55:03;;;;;;;62.50;35.60;;;;;;;0.96;100.00;100842.05;177680;1259;45979;-83
2024/03/20 00:59:06;;;;;;;54.70;36.90;;;;;;;0.99;100.00;100842.16;178222;1256;46008;-83
2024/03/20 01:03:09;;;;;;;56.40;32.10;;;;;;;0.95;100.00;100839.46;178105;1256;46010;-82
2024/03/20 01:07:11;;;;;;;53.80;35.90;;;;;;;0.94;100.00;100832.36;178284;1256;46045;-83
2024/03/20 01:11:14;;;;;;;57.80;33.60;;;;;;;0.97;100.00;100827.19;177774;1256;59669;-83
2024/03/20 01:15:17;;;;;;;62.70;34.60;;;;;;;0.98;100.00;100825.24;178082;1256;46403;-82
2024/03/20 01:19:26;;;;;;;59.50;32.00;;;;;;;0.95;100.00;100822.34;178118;1256;46032;-82
2024/03/20 01:23:29;;;;;;;60.80;36.70;;;;;;;0.88;100.00;100817.00;178147;1255;46571;-82
2024/03/20 01:27:32;;;;;;;68.00;41.90;;;;;;;0.88;100.00;100808.63;177824;1259;45991;-82
2024/03/20 01:31:35;;;;;;;67.60;42.00;;;;;;;0.88;100.00;100803.22;177923;1259;58234;-82
2024/03/20 01:35:38;;;;;;;62.70;38.50;;;;;;;0.88;100.00;100802.16;177572;1259;44149;-82
2024/03/20 01:39:41;;;;;;;66.20;38.10;;;;;;;0.88;100.00;100803.39;177654;1256;44102;-82
2024/03/20 01:43:54;;;;;;;61.60;39.50;;;;;;;0.88;100.00;100808.98;177714;1255;46109;-82
2024/03/20 01:47:57;;;;;;;55.70;38.80;;;;;;;0.86;100.00;100806.42;177436;1255;45914;-82
2024/03/20 01:52:01;;;;;;;63.90;40.80;;;;;;;0.84;100.00;100807.90;177751;1259;59640;-81
2024/03/20 01:56:04;;;;;;;74.10;39.70;;;;;;;0.80;100.00;100806.61;177551;1256;44207;-81
2024/03/20 02:00:07;;;;;;;65.20;40.40;;;;;;;0.73;100.00;100809.64;177977;1255;46228;-83
2024/03/20 02:04:10;;;;;;;66.60;40.20;;;;;;;0.70;100.00;100814.08;177420;1256;46146;-82
2024/03/20 02:08:13;;;;;;;62.10;37.90;;;;;;;0.69;100.00;100816.36;177890;1256;46000;-82
2024/03/20 02:12:16;;;;;;;63.70;37.00;;;;;;;0.64;100.00;100815.52;178178;1256;60036;-81
2024/03/20 02:16:20;;;;;;;66.10;37.30;;;;;;;0.60;100.00;100815.29;177732;1256;46004;-82
2024/03/20 02:20:23;;;;;;;74.40;41.80;;;;;;;0.59;100.00;100809.38;178171;1256;46029;-82
2024/03/20 02:24:27;;;;;;;73.90;44.60;;;;;;;0.60;100.00;100808.34;178159;1256;46111;-82
2024/03/20 02:28:32;;;;;;;64.10;39.10;;;;;;;0.61;100.00;100807.23;178144;1256;46070;-81
2024/03/20 02:32:39;;;;;;;77.00;44.00;;;;;;;0.61;100.00;100801.80;178382;1256;58316;-81
2024/03/20 02:36:42;;;;;;;73.70;42.50;;;;;;;0.51;100.00;100804.73;178467;1256;46009;-82
2024/03/20 02:40:45;;;;;;;65.80;39.40;;;;;;;0.35;100.00;100801.73;177924;1256;45935;-82
2024/03/20 02:44:48;;;;;;;60.50;33.20;;;;;;;0.25;100.00;100798.92;178414;1255;44714;-82
2024/03/20 02:48:51;;;;;;;59.70;35.70;;;;;;;0.04;100.00;100802.48;177785;1256;46083;-82
2024/03/20 02:52:55;;;;;;;71.30;36.50;;;;;;;-0.03;100.00;100798.88;177967;1255;60187;-82
2024/03/20 02:56:58;;;;;;;64.00;37.10;;;;;;;-0.04;100.00;100794.70;178209;1259;46047;-82
2024/03/20 03:01:01;;;;;;;67.00;34.70;;;;;;;-0.09;100.00;100789.98;179482;1257;44015;-82
2024/03/20 03:05:04;;;;;;;49.00;30.40;;;;;;;-0.23;100.00;100787.94;177967;1259;45988;-82
2024/03/20 03:09:08;;;;;;;53.50;32.30;;;;;;;-0.27;100.00;100785.98;177866;1256;46090;-82
2024/03/20 03:13:11;;;;;;;63.60;37.20;;;;;;;-0.32;100.00;100784.70;178059;1256;57959;-82
2024/03/20 03:17:14;;;;;;;52.20;34.00;;;;;;;-0.44;100.00;100781.20;177958;1257;46266;-83
2024/03/20 03:21:17;;;;;;;52.00;33.50;;;;;;;-0.47;100.00;100786.52;178847;1259;46179;-82
2024/03/20 03:25:20;;;;;;;63.20;35.70;;;;;;;-0.48;100.00;100792.99;178363;1256;46085;-82
2024/03/20 03:29:23;;;;;;;61.30;37.90;;;;;;;-0.44;100.00;100788.17;178238;1256;44161;-82
2024/03/20 03:33:25;;;;;;;62.80;38.80;;;;;;;-0.36;100.00;100788.13;177714;1259;59900;-82
2024/03/20 03:37:28;;;;;;;55.80;31.20;;;;;;;-0.34;100.00;100788.23;178241;1259;46087;-82
2024/03/20 03:41:32;;;;;;;59.50;32.80;;;;;;;-0.41;100.00;100790.89;178196;1256;46349;-83
2024/03/20 03:45:34;;;;;;;59.80;37.70;;;;;;;-0.48;100.00;100792.63;178160;1259;46144;-82
2024/03/20 03:49:37;;;;;;;58.60;33.30;;;;;;;-0.49;100.00;100790.92;178639;1256;46086;-82
2024/03/20 03:53:40;;;;;;;49.30;31.70;;;;;;;-0.51;100.00;100785.92;177914;1259;58183;-83
2024/03/20 03:57:43;;;;;;;54.50;32.10;;;;;;;-0.55;100.00;100781.34;177866;1259;46010;-82
2024/03/20 04:01:47;;;;;;;56.80;32.70;;;;;;;-0.60;100.00;100775.70;178299;1259;46047;-82
2024/03/20 04:05:51;;;;;;;70.00;35.40;;;;;;;-0.67;100.00;100775.91;178403;1259;46112;-83
2024/03/20 04:09:54;;;;;;;54.60;32.40;;;;;;;-0.68;100.00;100771.08;177768;1258;46144;-82
2024/03/20 04:13:57;;;;;;;49.40;31.80;;;;;;;-0.81;100.00;100771.76;177748;1259;58466;-83
2024/03/20 04:18:00;;;;;;;58.00;35.10;;;;;;;-0.89;100.00;100777.01;179836;1257;45928;-83
2024/03/20 04:22:03;;;;;;;55.00;31.70;;;;;;;-0.94;100.00;100778.73;179117;1257;46125;-83
2024/03/20 04:26:06;;;;;;;59.10;36.70;;;;;;;-0.93;100.00;100772.08;180158;1257;44566;-82
2024/03/20 04:30:12;;;;;;;53.30;32.40;;;;;;;-0.88;100.00;100770.72;181160;1256;44233;-83
2024/03/20 04:34:15;;;;;;;50.10;31.00;;;;;;;-0.88;100.00;100774.02;181103;1258;59349;-84
2024/03/20 04:38:18;;;;;;;62.40;37.70;;;;;;;-0.83;100.00;100779.11;179951;1257;44392;-84
2024/03/20 04:42:21;;;;;;;55.50;33.00;;;;;;;-0.72;100.00;100771.88;178179;1260;46169;-84
2024/03/20 04:46:24;;;;;;;54.80;33.60;;;;;;;-0.64;100.00;100775.84;178706;1257;44788;-82
2024/03/20 04:50:27;;;;;;;62.00;33.80;;;;;;;-0.70;100.00;100778.42;178833;1257;46105;-83
2024/03/20 04:54:30;;;;;;;53.50;36.20;;;;;;;-0.76;100.00;100782.76;178497;1257;59913;-84
2024/03/20 04:58:33;;;;;;;50.00;31.20;;;;;;;-0.71;100.00;100778.64;178219;1255;46111;-84
2024/03/20 05:02:36;;;;;;;51.70;31.70;;;;;;;-0.62;100.00;100784.31;178851;1260;46035;-82
2024/03/20 05:06:39;;;;;;;46.20;31.70;;;;;;;-0.51;100.00;100789.41;179253;1258;46008;-83
2024/03/20 05:10:42;;;;;;;61.80;36.30;;;;;;;-0.35;100.00;100793.17;179689;1259;44002;-83
2024/03/20 05:14:45;;;;;;;60.70;32.90;;;;;;;-0.18;100.00;100793.89;179266;1256;61091;-83
2024/03/20 05:18:47;;;;;;;59.70;36.60;;;;;;;0.05;100.00;100799.51;180358;1257;46020;-83
2024/03/20 05:22:50;;;;;;;59.70;31.60;;;;;;;0.32;100.00;100799.40;179097;1257;45992;-83
2024/03/20 05:26:53;;;;;;;56.60;35.90;;;;;;;0.82;100.00;100799.91;177957;1256;45918;-84
2024/03/20 05:30:56;;;;;;;61.00;37.20;;;;;;;1.67;100.00;100792.27;178298;1257;45983;-84
2024/03/20 05:34:59;;;;;;;67.50;40.00;;;;;;;2.57;100.00;100792.55;180420;1256;59451;-84
2024/03/20 05:39:03;;;;;;;56.10;36.30;;;;;;;3.37;100.00;100793.95;178420;1257;45972;-83
2024/03/20 05:43:06;;;;;;;56.70;32.10;;;;;;;4.08;100.00;100799.92;178715;1255;46144;-83
2024/03/20 05:47:09;;;;;;;53.20;33.70;;;;;;;4.57;100.00;100807.80;179555;1255;45870;-84
2024/03/20 05:51:12;;;;;;;49.70;34.50;;;;;;;4.79;98.56;100808.53;180270;1256;45957;-84
2024/03/20 05:55:15;;;;;;;50.30;32.50;;;;;;;4.71;95.97;100816.12;179884;1257;59076;-82
2024/03/20 05:59:18;;;;;;;50.60;33.10;;;;;;;4.87;94.85;100814.65;179764;1258;45984;-84
2024/03/20 06:03:21;;;;;;;52.00;34.20;;;;;;;5.34;94.95;100813.55;178228;1256;45960;-82
2024/03/20 06:07:24;;;;;;;49.60;35.60;;;;;;;5.75;89.80;100814.05;179413;1256;44192;-83
2024/03/20 06:11:27;;;;;;;49.90;34.80;;;;;;;5.77;83.23;100811.50;180860;1255;44017;-83
2024/03/20 06:15:30;;;;;;;46.50;31.00;;;;;;;5.99;83.84;100812.62;179431;1256;59465;-84
2024/03/20 06:19:33;;;;;;;62.00;34.10;;;;;;;6.29;81.97;100808.02;180546;1257;44231;-84
2024/03/20 06:23:36;;;;;;;48.70;30.20;;;;;;;6.46;80.58;100802.50;179035;1257;45995;-82
2024/03/20 06:27:39;;;;;;;49.90;34.20;;;;;;;6.39;78.89;100813.80;178280;1255;46145;-84
2024/03/20 06:31:42;;;;;;;49.20;34.70;;;;;;;6.02;78.90;100816.31;178778;1256;45341;-84
2024/03/20 06:35:47;;;;;;;65.00;40.10;;;;;;;5.51;80.39;100823.02;178100;1258;59668;-82
2024/03/20 06:39:50;;;;;;;56.60;39.00;;;;;;;5.12;81.56;100826.08;178276;1257;46104;-83
2024/03/20 06:43:54;;;;;;;50.60;33.90;;;;;;;4.82;83.16;100832.10;177923;1256;45986;-82
2024/03/20 06:47:57;;;;;;;68.80;37.00;;;;;;;4.65;85.28;100831.15;177883;1257;46011;-83
2024/03/20 06:52:00;;;;;;;59.70;37.60;;;;;;;4.67;87.85;100831.58;178187;1257;46205;-83
2024/03/20 06:56:05;;;;;;;54.80;34.00;;;;;;;4.92;89.06;100833.91;178181;1257;59395;-83
2024/03/20 07:00:17;;;;;;;55.50;36.20;;;;;;;5.24;88.74;100831.42;178044;1257;46121;-83
2024/03/20 07:04:20;;;;;;;57.60;36.40;;;;;;;5.57;88.56;100829.58;178601;1259;45956;-83
2024/03/20 07:08:29;;;;;;;60.80;39.40;;;;;;;5.91;87.31;100831.02;178006;1257;46459;-83
2024/03/20 07:12:32;;;;;;;56.30;38.20;;;;;;;6.16;86.45;100835.84;177677;1256;46026;-83
2024/03/20 07:16:36;;;;;;;51.90;36.90;;;;;;;6.37;85.93;100833.48;178214;1256;59234;-82
2024/03/20 07:20:38;;;;;;;74.30;51.80;;;;;;;6.56;84.95;100837.91;177754;1257;46098;-83
2024/03/20 07:24:41;;;;;;;54.80;36.60;;;;;;;6.70;83.60;100840.08;177928;1257;44438;-84
2024/03/20 07:28:44;;;;;;;80.40;46.10;;;;;;;6.83;82.37;100844.66;179183;1256;44157;-83
2024/03/20 07:32:47;;;;;;;47.20;30.50;;;;;;;6.96;82.33;100847.12;179406;1256;46141;-82
2024/03/20 07:36:50;;;;;;;66.30;38.10;;;;;;;7.08;81.17;100848.02;178291;1257;57289;-83
2024/03/20 07:40:54;;;;;;;63.00;36.80;;;;;;;7.15;80.91;100850.42;179155;1255;44719;-83
2024/03/20 07:44:56;;;;;;;51.20;30.70;;;;;;;7.23;80.40;100848.31;178991;1257;44732;-84
2024/03/20 07:48:59;;;;;;;71.30;33.80;;;;;;;7.37;80.19;100846.11;179275;1256;46591;-83
2024/03/20 07:53:03;;;;;;;61.60;33.40;;;;;;;7.60;81.22;100848.99;178794;1256;45945;-82
2024/03/20 07:57:06;;;;;;;50.20;29.70;;;;;;;7.85;81.19;100854.05;178770;1257;59681;-82
2024/03/20 08:01:12;;;;;;;48.40;32.20;;;;;;;7.95;79.97;100846.02;179522;1256;43979;-84
2024/03/20 08:05:15;;;;;;;45.50;29.50;;;;;;;8.19;80.57;100846.48;179146;1255;46216;-82
2024/03/20 08:09:19;;;;;;;38.50;25.40;;;;;;;8.38;77.41;100845.98;179284;1256;43997;-81
2024/03/20 08:13:22;;;;;;;48.40;30.60;;;;;;;8.29;78.94;100848.65;178337;1257;46132;-83
2024/03/20 08:17:25;;;;;;;35.10;26.30;;;;;;;8.40;79.10;100850.98;177813;1257;58218;-82
2024/03/20 08:21:28;;;;;;;44.30;30.10;;;;;;;8.41;79.57;100850.39;179353;1255;46400;-82
2024/03/20 08:25:31;;;;;;;33.20;23.40;;;;;;;8.64;77.77;100853.39;177547;1256;46199;-83
2024/03/20 08:29:35;;;;;;;41.20;28.90;;;;;;;8.71;75.55;100855.27;178287;1257;46147;-82
2024/03/20 08:33:38;;;;;;;37.40;26.20;;;;;;;8.91;76.57;100853.61;178438;1256;44106;-82
2024/03/20 08:37:41;;;;;;;42.60;27.60;;;;;;;9.12;77.11;100848.30;177857;1256;58152;-83
2024/03/20 08:41:44;;;;;;;39.30;26.00;;;;;;;9.30;76.29;100844.52;178810;1256;44118;-82
2024/03/20 08:45:46;;;;;;;41.80;27.40;;;;;;;9.50;75.02;100840.48;178803;1256;44132;-83
2024/03/20 08:49:49;;;;;;;35.00;23.70;;;;;;;9.76;74.97;100837.45;178983;1255;44169;-82
2024/03/20 08:53:52;;;;;;;39.20;25.90;;;;;;;9.65;74.27;100830.05;177449;1255;45896;-83
2024/03/20 08:57:55;;;;;;;37.50;25.90;;;;;;;9.70;74.37;100833.64;178339;1256;59687;-84
2024/03/20 09:01:58;;;;;;;43.90;24.50;;;;;;;9.85;73.31;100834.93;177996;1257;46503;-84
2024/03/20 09:06:01;;;;;;;40.10;25.50;;;;;;;10.04;73.77;100832.54;178219;1256;45997;-84
2024/03/20 09:10:04;;;;;;;42.80;26.30;;;;;;;10.00;75.79;100836.36;178007;1256;46189;-83
2024/03/20 09:14:08;;;;;;;38.70;25.50;;;;;;;10.10;74.92;100833.54;177760;1256;46016;-83
2024/03/20 09:18:11;;;;;;;41.30;24.90;;;;;;;10.28;73.67;100832.04;178289;1256;59633;-83
2024/03/20 09:22:14;;;;;;;42.00;25.60;;;;;;;10.44;72.57;100828.44;178936;1256;44785;-83
2024/03/20 09:26:17;;;;;;;32.30;20.90;;;;;;;10.63;71.64;100824.58;178620;1256;46140;-83
2024/03/20 09:30:20;;;;;;;35.20;21.70;;;;;;;10.83;71.07;100818.88;178235;1256;46817;-83
2024/03/20 09:34:23;;;;;;;32.20;21.20;;;;;;;10.93;69.59;100814.27;178099;1256;46214;-84
2024/03/20 09:38:26;;;;;;;30.30;20.40;;;;;;;10.97;68.46;100812.39;177679;1256;60787;-83
2024/03/20 09:42:29;;;;;;;29.00;17.60;;;;;;;11.08;66.65;100810.80;177938;1257;46090;-83
2024/03/20 09:46:32;;;;;;;23.80;16.20;;;;;;;11.19;67.93;100808.23;178883;1255;46125;-83
2024/03/20 09:50:36;;;;;;;26.50;18.00;;;;;;;11.39;66.33;100800.86;178760;1256;46146;-83
2024/03/20 09:54:43;;;;;;;26.70;15.50;;;;;;;11.49;64.73;100792.84;177980;1256;46169;-83
2024/03/20 09:58:46;;;;;;;;;;;;;;;11.60;64.65;100788.58;178310;1256;58281;-82
2024/03/20 10:02:49;;;;;;;26.80;15.00;;;;;;;11.80;62.43;100786.52;177624;1259;45689;-84
2024/03/20 10:06:53;;;;;;;26.30;16.50;;;;;;;11.76;63.55;100784.90;178441;1259;46039;-84
2024/03/20 10:10:56;;;;;;;19.40;14.90;;;;;;;11.84;60.23;100783.33;178367;1255;44491;-83
2024/03/20 10:15:04;;;;;;;19.50;14.00;;;;;;;12.13;58.57;100781.25;177936;1256;45962;-82
2024/03/20 10:19:13;;;;;;;21.60;13.50;;;;;;;12.32;55.64;100771.38;178613;1256;59427;-82
2024/03/20 10:23:15;;;;;;;23.50;11.50;;;;;;;12.56;52.84;100766.05;178107;1255;46036;-82
2024/03/20 10:27:18;;;;;;;20.40;13.90;;;;;;;12.74;51.71;100754.59;178060;1255;44126;-83
2024/03/20 10:31:21;;;;;;;20.70;12.30;;;;;;;12.94;52.68;100748.46;178058;1258;46148;-83
2024/03/20 10:35:35;;;;;;;20.50;12.70;;;;;;;13.07;51.04;100749.02;178448;1256;46066;-83
2024/03/20 10:39:38;;;;;;;18.50;13.60;;;;;;;12.94;50.60;100748.45;179552;1255;58000;-82
2024/03/20 10:43:41;;;;;;;19.20;12.10;;;;;;;13.07;50.11;100743.69;178770;1256;46007;-83
2024/03/20 10:47:46;;;;;;;21.10;14.30;;;;;;;13.18;50.46;100741.19;178561;1259;46093;-83
2024/03/20 10:51:51;;;;;;;19.20;15.00;;;;;;;13.33;50.05;100737.59;178873;1256;46478;-83
2024/03/20 10:55:54;;;;;;;22.00;14.30;;;;;;;13.51;50.07;100741.05;179027;1256;46169;-84
2024/03/20 10:59:57;;;;;;;21.80;14.60;;;;;;;13.51;48.85;100739.42;179097;1255;59887;-83
2024/03/20 11:04:00;;;;;;;19.50;13.50;;;;;;;13.63;50.37;100735.58;178092;1256;46080;-83
2024/03/20 11:08:07;;;;;;;19.40;14.20;;;;;;;13.66;51.57;100737.83;178225;1256;46086;-83
2024/03/20 11:12:30;;;;;;;20.20;12.70;;;;;;;13.72;49.90;100738.52;177876;1255;46241;-83
2024/03/20 11:16:33;;;;;;;19.20;13.10;;;;;;;13.80;50.78;100730.81;177995;1256;46001;-83
2024/03/20 11:20:37;;;;;;;16.80;12.60;;;;;;;13.90;49.86;100732.16;178428;1255;274117;-83
2024/03/20 11:24:40;;;;;;;20.90;14.40;;;;;;;13.99;49.63;100723.14;178626;1256;46026;-84
2024/03/20 11:28:49;;;;;;;19.00;13.50;;;;;;;14.08;48.97;100720.85;178702;1255;44409;-84
2024/03/20 11:32:53;;;;;;;16.20;11.50;;;;;;;14.26;48.69;100717.11;178038;1257;46568;-83
2024/03/20 11:36:56;;;;;;;18.00;11.60;;;;;;;14.32;46.58;100715.77;178128;1256;44761;-84
2024/03/20 11:41:01;;;;;;;17.80;11.90;;;;;;;14.44;46.61;100716.41;178575;1256;57932;-83
2024/03/20 11:45:08;;;;;;;18.00;11.10;;;;;;;14.42;46.17;100712.64;178671;1255;46218;-83
2024/03/20 11:49:12;;;;;;;20.00;11.30;;;;;;;14.36;44.93;100710.14;179222;1256;45956;-83
2024/03/20 11:53:15;;;;;;;14.70;10.80;;;;;;;14.46;44.65;100707.81;178403;1256;44054;-83
2024/03/20 11:57:19;;;;;;;17.10;12.60;;;;;;;14.65;45.24;100704.14;178292;1259;46088;-83
2024/03/20 12:01:23;;;;;;;14.30;12.10;;;;;;;14.82;46.31;100697.81;178433;1256;59677;-83
2024/03/20 12:05:27;;;;;;;17.70;12.30;;;;;;;14.72;45.38;100696.01;178430;1256;44428;-84
2024/03/20 12:09:32;;;;;;;16.60;10.60;;;;;;;14.73;46.91;100691.84;178507;1256;46013;-84
2024/03/20 12:13:34;;;;;;;18.10;11.00;;;;;;;14.84;44.46;100681.42;178463;1256;46127;-82
2024/03/20 12:17:37;;;;;;;15.10;10.50;;;;;;;14.96;43.76;100685.43;178630;1256;46027;-83
2024/03/20 12:21:40;;;;;;;13.90;9.90;;;;;;;15.10;43.01;100680.04;178162;1256;58723;-83
2024/03/20 12:25:43;;;;;;;14.40;10.60;;;;;;;15.14;42.96;100680.87;178115;1257;46144;-82
2024/03/20 12:29:46;;;;;;;14.10;10.90;;;;;;;15.20;44.91;100683.16;178839;1258;46205;-83
2024/03/20 12:33:50;;;;;;;15.00;9.80;;;;;;;15.28;44.08;100678.70;178096;1255;46244;-83
2024/03/20 12:37:53;;;;;;;13.50;9.80;;;;;;;15.38;42.80;100676.30;178472;1256;45923;-82
2024/03/20 12:42:01;;;;;;;14.20;8.60;;;;;;;15.46;41.52;100675.02;178590;1256;59374;-82
2024/03/20 12:46:03;;;;;;;11.70;8.80;;;;;;;15.61;41.60;100671.44;178359;1255;46062;-84
2024/03/20 12:50:11;;;;;;;12.70;8.50;;;;;;;15.71;40.21;100672.40;178927;1255;46433;-83
2024/03/20 12:54:17;;;;;;;15.20;9.90;;;;;;;15.78;40.89;100671.95;180058;1255;44054;-82
2024/03/20 12:58:20;;;;;;;12.50;8.10;;;;;;;15.86;40.21;100673.52;178680;1255;46109;-82
2024/03/20 13:02:23;;;;;;;18.00;9.40;;;;;;;15.87;39.02;100672.88;178579;1258;59563;-82
2024/03/20 13:06:27;;;;;;;12.20;7.50;;;;;;;15.97;40.24;100671.61;178093;1256;46225;-83
2024/03/20 13:10:30;;;;;;;12.10;8.00;;;;;;;15.91;38.58;100671.77;178412;1256;46012;-83
2024/03/20 13:14:34;;;;;;;12.80;8.00;;;;;;;15.84;38.12;100666.15;178715;1259;46125;-83
2024/03/20 13:18:48;;;;;;;11.20;8.30;;;;;;;15.84;36.92;100668.52;178477;1256;46001;-82
2024/03/20 13:22:50;;;;;;;12.30;8.40;;;;;;;15.95;37.94;100663.53;178459;1259;59343;-83
2024/03/20 13:26:54;;;;;;;9.70;7.80;;;;;;;16.00;38.71;100659.46;178185;1256;45996;-83
2024/03/20 13:30:58;;;;;;;9.80;7.20;;;;;;;16.14;37.66;100655.00;179717;1255;43865;-83
2024/03/20 13:35:08;;;;;;;8.10;6.70;;;;;;;16.24;37.28;100652.11;177771;1256;46124;-83
2024/03/20 13:40:06;;;;;;;8.10;5.60;;;;;;;16.34;36.51;100650.55;178893;1255;44692;-83
2024/03/20 13:43:50;;;;;;;10.10;6.20;;;;;;;16.34;34.82;100647.16;178562;1256;58166;-83
2024/03/20 13:47:53;;;;;;;11.40;6.50;;;;;;;16.27;35.70;100647.66;179252;1257;46026;-83
2024/03/20 13:51:58;;;;;;;11.20;7.70;;;;;;;16.13;34.37;100641.58;177933;1255;45998;-83
2024/03/20 13:56:01;;;;;;;7.20;5.20;;;;;;;16.02;34.32;100637.38;179016;1256;44691;-83
2024/03/20 14:00:12;;;;;;;10.10;7.20;;;;;;;15.81;33.35;100634.49;179466;1255;44195;-84
2024/03/20 14:04:17;;;;;;;12.80;8.40;;;;;;;15.74;34.21;100635.30;178667;1256;59620;-83
2024/03/20 14:08:20;;;;;;;15.00;8.20;;;;;;;15.78;34.75;100630.61;178348;1255;46064;-83
2024/03/20 14:12:40;;;;;;;10.80;7.50;;;;;;;15.96;36.53;100627.52;178666;1255;45975;-83
2024/03/20 14:16:44;;;;;;;15.80;9.20;;;;;;;16.14;35.84;100624.98;178619;1256;44721;-84
2024/03/20 14:20:47;;;;;;;13.40;7.50;;;;;;;16.13;35.69;100625.40;179175;1256;44635;-83
2024/03/20 14:24:50;;;;;;;11.50;8.30;;;;;;;16.08;35.30;100625.05;179140;1256;57799;-83
2024/03/20 14:29:03;;;;;;;17.70;9.20;;;;;;;16.13;34.81;100623.42;179920;1255;44600;-84
2024/03/20 14:33:06;;;;;;;13.10;8.70;;;;;;;16.18;35.45;100622.23;178925;1256;46145;-83
2024/03/20 14:37:10;;;;;;;15.40;11.30;;;;;;;16.21;35.34;100623.39;178614;1259;46150;-82
2024/03/20 14:41:17;;;;;;;12.50;9.30;;;;;;;16.27;36.06;100616.70;178214;1256;46484;-85
2024/03/20 14:45:20;;;;;;;15.40;9.60;;;;;;;16.34;36.23;100614.02;179199;1256;60187;-84
2024/03/20 14:49:23;;;;;;;12.10;8.40;;;;;;;16.39;36.01;100604.59;178718;1256;46033;-84
2024/03/20 14:53:27;;;;;;;10.60;7.70;;;;;;;16.43;35.84;100609.41;178840;1256;44067;-83
2024/03/20 14:57:30;;;;;;;11.20;8.00;;;;;;;16.40;35.48;100606.10;178793;1256;46159;-83
2024/03/20 15:01:35;;;;;;;18.60;9.90;;;;;;;16.29;36.46;100600.71;179179;1257;44386;-82
2024/03/20 15:05:38;;;;;;;15.70;10.10;;;;;;;16.15;38.72;100597.71;179752;1256;57676;-83
2024/03/20 15:09:42;;;;;;;16.20;9.20;;;;;;;16.04;39.58;100596.67;178536;1256;45940;-83
2024/03/20 15:13:47;;;;;;;15.70;10.70;;;;;;;15.98;38.69;100596.10;178347;1255;45993;-83
2024/03/20 15:17:50;;;;;;;14.40;9.50;;;;;;;15.97;38.35;100598.94;178434;1255;45939;-82
2024/03/20 15:21:53;;;;;;;13.80;10.30;;;;;;;15.96;38.84;100593.16;178599;1255;45949;-82
2024/03/20 15:25:57;;;;;;;16.40;10.40;;;;;;;16.01;39.34;100601.29;178679;1256;59553;-82
2024/03/20 15:30:03;;;;;;;14.80;11.20;;;;;;;16.09;39.05;100599.20;177949;1255;44159;-82
2024/03/20 15:34:05;;;;;;;;;;;;;;;16.16;38.65;100596.86;178127;1256;46119;-82
2024/03/20 15:38:08;;;;;;;16.80;8.90;;;;;;;16.16;38.30;100599.80;178708;1256;45807;-83
2024/03/20 15:42:12;;;;;;;15.20;9.90;;;;;;;16.13;38.05;100600.00;178299;1255;46076;-82
2024/03/20 15:46:15;;;;;;;16.80;11.30;;;;;;;16.09;37.86;100601.26;179252;1256;59657;-82
2024/03/20 15:50:19;;;;;;;17.80;11.60;;;;;;;16.08;38.31;100598.89;178721;1256;45937;-82
2024/03/20 15:54:23;;;;;;;14.90;10.00;;;;;;;16.06;38.11;100598.05;178989;1255;46001;-82
2024/03/20 15:58:28;;;;;;;14.10;10.30;;;;;;;16.05;37.77;100596.92;179083;1255;45953;-83
2024/03/20 16:02:31;;;;;;;17.20;10.50;;;;;;;16.03;37.68;100600.87;178225;1256;46138;-81
2024/03/20 16:06:35;;;;;;;16.00;9.90;;;;;;;15.95;37.98;100599.80;178299;1256;58366;-80
2024/03/20 16:10:39;;;;;;;24.40;17.20;;;;;;;15.81;39.25;100600.49;179258;1256;46215;-80
2024/03/20 16:14:42;;;;;;;13.30;9.90;;;;;;;15.59;41.24;100605.98;178411;1256;45995;-80
2024/03/20 16:18:49;;;;;;;16.30;10.80;;;;;;;15.36;41.87;100603.05;178571;1256;44097;-80
2024/03/20 16:22:54;;;;;;;12.00;10.60;;;;;;;15.20;42.56;100602.30;178789;1259;46111;-83
2024/03/20 16:26:57;;;;;;;16.30;9.70;;;;;;;15.05;43.45;100608.71;178971;1255;57796;-84
2024/03/20 16:31:00;;;;;;;19.80;11.70;;;;;;;14.90;43.94;100608.69;179118;1255;46030;-80
2024/03/20 16:35:03;;;;;;;14.90;10.50;;;;;;;14.73;43.84;100610.23;179581;1256;45988;-80
2024/03/20 16:39:10;;;;;;;14.40;10.00;;;;;;;14.57;44.08;100614.70;179187;1255;46118;-80
2024/03/20 16:43:13;;;;;;;25.20;14.20;;;;;;;14.34;47.23;100617.39;181176;1256;44157;-80
2024/03/20 16:47:18;;;;;;;37.60;23.30;;;;;;;13.94;51.70;100620.55;178627;1256;59667;-81
2024/03/20 16:51:21;;;;;;;23.50;15.50;;;;;;;13.58;51.93;100623.37;179440;1255;46026;-82
2024/03/20 16:55:24;;;;;;;24.80;17.10;;;;;;;13.27;50.88;100624.12;180055;1259;44917;-81
2024/03/20 16:59:27;;;;;;;32.60;23.10;;;;;;;13.04;49.66;100628.17;178859;1256;46074;-82
2024/03/20 17:03:30;;;;;;;80.70;62.60;;;;;;;12.72;50.82;100630.73;179182;1256;46161;-80
2024/03/20 17:07:36;;;;;;;41.40;29.20;;;;;;;12.39;52.10;100632.46;178163;1256;59530;-80
2024/03/20 17:11:39;;;;;;;67.00;43.00;;;;;;;12.15;49.46;100630.48;179564;1257;45982;-81
2024/03/20 17:15:42;;;;;;;27.70;20.30;;;;;;;12.05;51.80;100635.79;178237;1256;46023;-81
2024/03/20 17:19:45;;;;;;;25.00;15.80;;;;;;;11.94;54.82;100636.30;178448;1256;46163;-80
2024/03/20 17:23:48;;;;;;;24.70;15.30;;;;;;;11.81;54.51;100637.17;178073;1256;46249;-82
2024/03/20 17:27:58;;;;;;;18.60;13.80;;;;;;;11.69;54.74;100642.60;178618;1256;59518;-81
2024/03/20 17:32:06;;;;;;;28.30;18.30;;;;;;;11.59;53.95;100643.75;178665;1259;44418;-81
2024/03/20 17:36:09;;;;;;;29.10;18.50;;;;;;;11.48;53.83;100648.33;178052;1255;44038;-81
2024/03/20 17:40:14;;;;;;;32.30;19.90;;;;;;;11.36;52.84;100655.19;178072;1256;46195;-82
2024/03/20 17:44:17;;;;;;;61.50;42.80;;;;;;;11.18;53.00;100657.73;178082;1256;46097;-82
2024/03/20 17:48:20;;;;;;;76.80;48.30;;;;;;;10.92;55.83;100653.77;177482;1256;61360;-82
2024/03/20 17:52:23;;;;;;;67.20;45.30;;;;;;;10.70;57.19;100659.88;178127;1255;45979;-83
2024/03/20 17:56:29;;;;;;;73.90;55.50;;;;;;;10.58;58.15;100661.66;177869;1257;46212;-83
2024/03/20 18:00:33;;;;;;;;;;;;;;;10.44;60.59;100663.44;178162;1256;46051;-83
2024/03/20 18:04:36;;;;;;;136.40;75.40;;;;;;;10.29;62.42;100664.82;178130;1256;45896;-82
2024/03/20 18:08:39;;;;;;;112.50;63.40;;;;;;;10.16;62.73;100662.75;177535;1256;59610;-83
2024/03/20 18:12:42;;;;;;;85.80;51.00;;;;;;;10.04;66.52;100667.58;177555;1255;45991;-83
2024/03/20 18:16:45;;;;;;;79.90;49.30;;;;;;;9.90;66.18;100662.91;178019;1256;46226;-83
2024/03/20 18:20:49;;;;;;;63.30;45.20;;;;;;;9.81;66.04;100658.06;178217;1256;44726;-81